Time;durP1;ratioP1;P1;durP2;ratioP2;P2;SDS_P1;SDS_P2;PMS_P1;PMS_P2;Temp;Humidity;BMP_temperature;BMP_pressure;BME280_temperature;BME280_humidity;BME280_pressure;Samples;Min_cycle;Max_cycle;Signal;HPM_P1;HPM_P2
2021/05/18 00:01:42;;;;;;;1.02;0.08;;;13.00;99.90;;;;;;5048114;28;20049;-60
2021/05/18 00:04:09;;;;;;;2.05;0.50;;;13.00;99.90;;;;;;5033346;28;20037;-60
2021/05/18 00:06:37;;;;;;;1.58;0.10;;;13.00;99.90;;;;;;5025806;28;20052;-60
2021/05/18 00:11:51;;;;;;;1.65;0.10;;;13.00;99.90;;;;;;5049091;28;20131;-61
2021/05/18 00:14:21;;;;;;;0.40;0.20;;;13.00;99.90;;;;;;5031436;28;20041;-60
2021/05/18 00:16:48;;;;;;;2.67;0.30;;;12.90;99.90;;;;;;5047957;28;20052;-60
2021/05/18 00:19:16;;;;;;;0.65;0.20;;;13.00;99.90;;;;;;5031941;28;20088;-60
2021/05/18 00:21:44;;;;;;;0.10;0.00;;;13.00;99.90;;;;;;5032031;28;20120;-60
2021/05/18 00:24:13;;;;;;;2.55;0.10;;;13.00;99.90;;;;;;5052728;28;20052;-60
2021/05/18 00:26:40;;;;;;;0.85;0.15;;;13.00;99.90;;;;;;5052699;28;20683;-60
2021/05/18 00:29:08;;;;;;;0.98;0.10;;;12.90;99.90;;;;;;5052305;28;20539;-60
2021/05/18 00:31:35;;;;;;;0.95;0.10;;;12.90;99.90;;;;;;5038765;28;20767;-60
2021/05/18 00:34:03;;;;;;;0.38;0.10;;;12.80;99.90;;;;;;5053825;28;20171;-60
2021/05/18 00:36:30;;;;;;;0.85;0.10;;;12.80;99.90;;;;;;5036103;28;20053;-60
2021/05/18 00:38:57;;;;;;;0.60;0.22;;;12.80;99.90;;;;;;5035326;28;20511;-60
2021/05/18 00:41:25;;;;;;;0.10;0.00;;;12.90;99.90;;;;;;5032843;28;20056;-60
2021/05/18 00:43:52;;;;;;;0.30;0.00;;;12.90;99.90;;;;;;5051907;28;20049;-60
2021/05/18 00:46:20;;;;;;;0.22;0.10;;;12.90;99.90;;;;;;5035804;28;20052;-60
2021/05/18 00:48:56;;;;;;;0.40;0.00;;;12.90;99.90;;;;;;5037047;28;20049;-60
2021/05/18 00:51:32;;;;;;;0.50;0.10;;;12.90;99.90;;;;;;5037130;28;20492;-60
2021/05/18 00:54:03;;;;;;;0.50;0.00;;;13.00;99.90;;;;;;5003473;28;20449;-60
2021/05/18 00:59:06;;;;;;;0.43;0.10;;;13.00;99.90;;;;;;5051887;28;20055;-60
2021/05/18 01:01:33;;;;;;;0.15;0.00;;;13.00;99.90;;;;;;5039774;28;20049;-60
2021/05/18 01:04:00;;;;;;;0.40;0.00;;;12.90;99.90;;;;;;5052700;28;20068;-60
2021/05/18 01:06:30;;;;;;;0.45;0.00;;;12.90;99.90;;;;;;5036729;28;20041;-60
2021/05/18 01:09:08;;;;;;;1.10;0.10;;;13.00;99.90;;;;;;5049129;28;20049;-60
2021/05/18 01:11:39;;;;;;;1.05;0.10;;;12.90;99.90;;;;;;5049857;28;20104;-60
2021/05/18 01:14:12;;;;;;;2.13;0.40;;;12.90;99.90;;;;;;5053591;28;20132;-60
2021/05/18 01:16:44;;;;;;;0.38;0.00;;;12.90;99.90;;;;;;5052410;28;20128;-60
2021/05/18 01:19:13;;;;;;;0.30;0.00;;;12.90;99.90;;;;;;5052485;28;20120;-60
2021/05/18 01:21:41;;;;;;;0.10;0.00;;;12.90;99.90;;;;;;5032766;28;20103;-60
2021/05/18 01:24:09;;;;;;;4.90;0.10;;;12.90;99.90;;;;;;5012736;28;20056;-60
2021/05/18 01:26:37;;;;;;;0.65;0.05;;;12.90;99.90;;;;;;5032213;28;20563;-60
2021/05/18 01:29:08;;;;;;;0.90;0.35;;;12.90;99.90;;;;;;5050347;28;20390;-60
2021/05/18 01:31:43;;;;;;;1.75;0.00;;;12.90;99.90;;;;;;5031231;28;20454;-60
2021/05/18 01:34:11;;;;;;;0.30;0.00;;;12.90;99.90;;;;;;5050551;28;20037;-60
2021/05/18 01:36:43;;;;;;;1.42;0.00;;;13.00;99.90;;;;;;5034069;28;20738;-60
2021/05/18 01:44:35;;;;;;;0.45;0.00;;;12.90;99.70;;;;;;5038188;28;20072;-60
2021/05/18 01:47:04;;;;;;;0.30;0.22;;;12.90;99.50;;;;;;5017404;28;20099;-60
2021/05/18 01:49:38;;;;;;;0.95;0.00;;;13.00;99.20;;;;;;5052050;28;20052;-60
2021/05/18 01:52:08;;;;;;;0.57;0.22;;;13.00;99.00;;;;;;5017244;28;20049;-60
2021/05/18 01:54:36;;;;;;;0.22;0.00;;;13.00;98.80;;;;;;5014050;28;20045;-60
2021/05/18 01:57:17;;;;;;;0.63;0.00;;;13.00;98.40;;;;;;5028013;28;20064;-60
2021/05/18 01:59:56;;;;;;;0.45;0.00;;;13.00;98.30;;;;;;5017562;28;20389;-60
2021/05/18 02:02:24;;;;;;;0.08;0.00;;;13.00;98.10;;;;;;5034110;28;20072;-60
2021/05/18 02:05:05;;;;;;;0.80;0.08;;;13.00;97.70;;;;;;5033067;28;20052;-60
2021/05/18 02:07:44;;;;;;;0.98;0.00;;;13.00;98.00;;;;;;5052583;28;20057;-60
2021/05/18 02:10:14;;;;;;;0.00;0.00;;;13.10;97.60;;;;;;5050960;28;20059;-60
2021/05/18 02:12:55;;;;;;;1.00;0.00;;;13.10;97.70;;;;;;5026969;28;20110;-60
2021/05/18 02:18:12;;;;;;;0.08;0.00;;;13.00;97.50;;;;;;5025834;28;20087;-60
2021/05/18 02:20:45;;;;;;;0.15;0.00;;;13.00;97.30;;;;;;5037657;28;20437;-60
2021/05/18 02:26:08;;;;;;;0.00;0.00;;;13.00;97.60;;;;;;5025423;28;20041;-60
2021/05/18 02:28:44;;;;;;;1.23;0.10;;;13.00;97.60;;;;;;5034563;28;20045;-60
2021/05/18 02:31:11;;;;;;;0.10;0.00;;;13.00;97.80;;;;;;5054663;28;20044;-60
2021/05/18 02:33:47;;;;;;;0.40;0.00;;;13.00;97.30;;;;;;5034104;28;20056;-60
2021/05/18 02:36:17;;;;;;;0.10;0.00;;;13.00;97.90;;;;;;5019642;28;20102;-60
2021/05/18 02:38:45;;;;;;;0.30;0.00;;;13.00;97.30;;;;;;5050255;28;20103;-60
2021/05/18 02:41:16;;;;;;;2.47;0.07;;;13.00;97.10;;;;;;5031530;28;20141;-60
2021/05/18 02:43:55;;;;;;;0.10;0.00;;;13.00;97.20;;;;;;5051223;28;20525;-60
2021/05/18 02:51:41;;;;;;;0.05;0.00;;;12.90;97.30;;;;;;5042287;28;20428;-60
2021/05/18 02:54:12;;;;;;;0.25;0.00;;;12.90;97.60;;;;;;5023245;28;20489;-59
2021/05/18 02:59:13;;;;;;;0.22;0.08;;;12.90;97.60;;;;;;5031563;28;20056;-59
2021/05/18 03:01:42;;;;;;;0.03;0.00;;;12.90;97.30;;;;;;5050029;28;20056;-60
2021/05/18 03:04:09;;;;;;;0.90;0.00;;;12.90;97.20;;;;;;5050766;28;20500;-60
2021/05/18 03:06:37;;;;;;;0.57;0.00;;;12.90;97.30;;;;;;5033191;28;20059;-60
2021/05/18 03:09:09;;;;;;;1.23;0.20;;;12.90;97.40;;;;;;5046959;28;20128;-60
2021/05/18 03:11:38;;;;;;;1.27;0.00;;;12.80;97.80;;;;;;5049118;28;20139;-60
2021/05/18 03:14:07;;;;;;;0.40;0.00;;;12.80;97.80;;;;;;5046891;28;20095;-60
2021/05/18 03:16:38;;;;;;;0.47;0.00;;;12.80;97.70;;;;;;5049582;28;20053;-60
2021/05/18 03:19:07;;;;;;;0.10;0.00;;;12.80;97.90;;;;;;5032239;28;20053;-60
2021/05/18 03:21:34;;;;;;;0.10;0.00;;;12.80;97.70;;;;;;5049952;28;20052;-60
2021/05/18 03:24:01;;;;;;;0.40;0.00;;;12.80;97.70;;;;;;5026005;28;20049;-60
2021/05/18 03:26:28;;;;;;;0.30;0.00;;;12.80;98.00;;;;;;5034299;28;20052;-60
2021/05/18 03:29:02;;;;;;;0.95;0.05;;;12.80;97.60;;;;;;5030979;28;20104;-60
2021/05/18 03:37:15;;;;;;;0.60;0.00;;;12.80;98.20;;;;;;5029007;28;20061;-59
2021/05/18 03:39:45;;;;;;;0.43;0.00;;;12.70;97.90;;;;;;5029811;28;20081;-60
2021/05/18 03:42:17;;;;;;;0.20;0.10;;;12.70;98.30;;;;;;5027514;28;20128;-60
2021/05/18 03:45:11;;;;;;;0.20;0.00;;;12.70;98.30;;;;;;5029275;28;20124;-60
2021/05/18 04:18:03;;;;;;;0.30;0.00;;;12.80;98.30;;;;;;5015392;28;20045;-59
2021/05/18 05:16:34;;;;;;;0.30;0.10;;;13.10;96.80;;;;;;5052278;28;20045;-59
2021/05/18 05:19:01;;;;;;;0.93;0.00;;;13.20;96.90;;;;;;5058088;28;20049;-59
2021/05/18 05:21:31;;;;;;;0.60;0.10;;;13.20;96.70;;;;;;5038690;28;20392;-60
2021/05/18 05:23:58;;;;;;;0.47;0.00;;;13.30;96.80;;;;;;5032560;28;20099;-60
2021/05/18 05:26:25;;;;;;;0.28;0.00;;;13.30;96.40;;;;;;5051880;28;20412;-59
2021/05/18 05:28:52;;;;;;;0.55;0.40;;;13.30;95.90;;;;;;5033546;28;20053;-59
2021/05/18 05:31:19;;;;;;;1.17;0.10;;;13.40;96.20;;;;;;5051612;28;20045;-59
2021/05/18 05:33:46;;;;;;;1.20;0.00;;;13.30;95.60;;;;;;5035331;28;20049;-59
2021/05/18 05:36:13;;;;;;;1.65;0.00;;;13.30;96.00;;;;;;5052000;28;20053;-59
2021/05/18 05:38:40;;;;;;;0.80;0.00;;;13.40;96.10;;;;;;5051541;28;20072;-59
2021/05/18 05:41:07;;;;;;;0.47;0.10;;;13.40;95.50;;;;;;5054547;28;20106;-60
2021/05/18 05:43:34;;;;;;;0.20;0.03;;;13.40;95.90;;;;;;5051018;28;20041;-60
2021/05/18 05:46:02;;;;;;;0.80;0.10;;;13.50;95.20;;;;;;5052091;28;20057;-59
2021/05/18 05:48:29;;;;;;;3.55;0.60;;;13.50;95.00;;;;;;5051909;28;20049;-59
2021/05/18 05:50:56;;;;;;;3.92;0.88;;;13.60;95.30;;;;;;5051583;28;20045;-59
2021/05/18 05:53:23;;;;;;;2.45;0.30;;;13.60;95.50;;;;;;5052338;28;20412;-59
2021/05/18 05:55:50;;;;;;;0.30;0.00;;;13.70;95.30;;;;;;5034972;28;20048;-59
2021/05/18 05:58:17;;;;;;;1.45;0.10;;;13.80;94.90;;;;;;5051483;28;20045;-59
2021/05/18 06:00:44;;;;;;;0.30;0.00;;;13.80;95.20;;;;;;5048126;28;20129;-59
2021/05/18 06:03:12;;;;;;;0.85;0.43;;;13.90;95.10;;;;;;5050227;28;20524;-60
2021/05/18 06:05:39;;;;;;;1.05;0.10;;;13.90;95.00;;;;;;5031677;28;20083;-60
2021/05/18 06:08:06;;;;;;;0.32;0.20;;;13.90;94.80;;;;;;5031567;28;20496;-59
2021/05/18 06:10:36;;;;;;;0.75;0.20;;;14.00;95.30;;;;;;5049472;28;20103;-59
2021/05/18 06:16:34;;;;;;;2.53;0.10;;;14.10;94.80;;;;;;4963321;28;20070;-59
2021/05/18 06:43:31;;;;;;;1.15;0.10;;;14.70;93.00;;;;;;4967005;28;20079;-59
2021/05/18 06:46:22;;;;;;;0.85;0.00;;;14.80;92.80;;;;;;4960214;28;20050;-59
2021/05/18 06:48:57;;;;;;;1.83;0.00;;;14.80;92.80;;;;;;4950957;28;20150;-59
2021/05/18 06:51:24;;;;;;;2.38;0.75;;;14.90;93.10;;;;;;5043902;28;20051;-59
2021/05/18 06:53:51;;;;;;;0.35;0.00;;;14.90;93.00;;;;;;5045991;28;20045;-60
2021/05/18 06:56:18;;;;;;;0.22;0.00;;;15.00;91.40;;;;;;5049123;28;20492;-60
2021/05/18 07:01:12;;;;;;;2.83;0.00;;;15.00;91.10;;;;;;5047867;28;20060;-59
2021/05/18 07:03:52;;;;;;;0.70;0.00;;;15.10;92.20;;;;;;5048053;28;20087;-59
2021/05/18 07:09:05;;;;;;;2.92;1.05;;;15.10;92.30;;;;;;5050870;28;20576;-60
2021/05/18 07:11:33;;;;;;;1.50;0.32;;;15.20;91.20;;;;;;5050328;28;20095;-60
2021/05/18 07:14:00;;;;;;;3.88;0.30;;;15.20;91.30;;;;;;5054940;28;20048;-60
2021/05/18 07:16:27;;;;;;;3.15;0.68;;;15.20;91.70;;;;;;5052237;28;20049;-60
2021/05/18 07:18:54;;;;;;;0.60;0.20;;;15.10;91.20;;;;;;5030112;28;20049;-60
2021/05/18 07:21:22;;;;;;;0.85;0.20;;;15.10;91.10;;;;;;5024294;28;20523;-59
2021/05/18 07:23:51;;;;;;;0.65;0.03;;;15.10;91.40;;;;;;5045833;28;20049;-59
2021/05/18 07:26:18;;;;;;;3.35;0.32;;;15.00;91.60;;;;;;5041226;28;20059;-59
2021/05/18 07:28:45;;;;;;;0.35;0.10;;;15.10;91.90;;;;;;5047325;28;20060;-59
2021/05/18 07:31:13;;;;;;;2.08;0.70;;;15.10;90.90;;;;;;5046899;28;20604;-59
2021/05/18 07:33:40;;;;;;;1.70;0.60;;;15.10;91.40;;;;;;5047883;28;20056;-59
2021/05/18 07:36:08;;;;;;;1.25;0.10;;;15.10;91.60;;;;;;5048679;28;20611;-59
2021/05/18 07:38:40;;;;;;;0.30;0.10;;;15.20;91.90;;;;;;5048172;28;20057;-59
2021/05/18 07:41:08;;;;;;;4.13;0.17;;;15.20;91.00;;;;;;5031341;28;20739;-59
2021/05/18 07:43:36;;;;;;;1.38;0.10;;;15.20;90.40;;;;;;5038330;28;20092;-59
2021/05/18 07:46:05;;;;;;;2.10;0.25;;;15.20;90.20;;;;;;5030695;28;20051;-59
2021/05/18 08:07:14;;;;;;;0.50;0.10;;;15.60;90.80;;;;;;5042604;28;20045;-59
2021/05/18 08:09:53;;;;;;;1.52;0.10;;;15.60;89.10;;;;;;5045623;28;20060;-60
2021/05/18 08:12:20;;;;;;;0.93;0.10;;;15.80;90.00;;;;;;5038126;28;20392;-61
2021/05/18 08:14:58;;;;;;;1.05;0.10;;;15.70;87.80;;;;;;5043245;28;20607;-59
2021/05/18 08:17:28;;;;;;;2.00;0.00;;;15.70;88.50;;;;;;5028293;28;20067;-59
2021/05/18 08:20:22;;;;;;;2.22;0.00;;;15.60;89.00;;;;;;5029191;28;20404;-59
2021/05/18 09:33:21;;;;;;;0.88;0.00;;;15.90;84.30;;;;;;5035212;28;20053;-71
2021/05/18 09:44:06;;;;;;;1.25;0.05;;;16.50;82.90;;;;;;5046786;28;20049;-71
2021/05/18 10:34:41;;;;;;;2.05;0.20;;;16.80;87.90;;;;;;5046480;28;20048;-63
2021/05/18 10:38:06;;;;;;;0.38;0.10;;;16.80;86.50;;;;;;5021130;28;20053;-63
2021/05/18 10:40:26;;;;;;;3.30;0.30;;;16.90;88.10;;;;;;5028084;28;20559;-63
2021/05/18 10:43:05;;;;;;;1.75;0.10;;;17.10;86.90;;;;;;5046250;28;20049;-70
2021/05/18 10:46:05;;;;;;;0.43;0.20;;;17.30;84.90;;;;;;5046026;28;20059;-70
2021/05/18 10:48:38;;;;;;;5.53;0.40;;;17.30;82.10;;;;;;5019360;28;20044;-70
2021/05/18 10:51:35;;;;;;;0.85;0.20;;;17.20;79.80;;;;;;5026237;28;20526;-63
2021/05/18 10:54:10;;;;;;;1.70;0.10;;;17.40;81.20;;;;;;5045340;28;20081;-63
2021/05/18 10:57:02;;;;;;;0.65;0.10;;;17.50;80.50;;;;;;5043722;28;20107;-63
2021/05/18 10:59:31;;;;;;;0.28;0.00;;;17.50;77.60;;;;;;5012275;28;20049;-64
2021/05/18 11:02:25;;;;;;;2.08;0.10;;;17.40;77.50;;;;;;5044505;28;20049;-63
2021/05/18 11:05:07;;;;;;;1.40;0.10;;;17.30;78.70;;;;;;5015199;28;20144;-63
2021/05/18 11:07:43;;;;;;;0.17;0.00;;;17.20;80.20;;;;;;5047037;28;20049;-63
2021/05/18 11:10:15;;;;;;;3.13;0.05;;;17.00;86.00;;;;;;5009932;28;20056;-63
2021/05/18 11:12:48;;;;;;;1.60;0.13;;;16.70;85.10;;;;;;5026077;28;20049;-63
2021/05/18 11:15:16;;;;;;;0.38;0.10;;;16.50;90.20;;;;;;5029541;28;20052;-63
2021/05/18 11:17:49;;;;;;;0.40;0.10;;;16.20;90.60;;;;;;5032120;28;20092;-63
2021/05/18 11:25:52;;;;;;;0.65;0.22;;;15.40;92.90;;;;;;5039841;28;20068;-62
2021/05/18 11:28:27;;;;;;;0.73;0.35;;;15.40;92.10;;;;;;5045867;28;20047;-62
2021/05/18 11:30:56;;;;;;;0.70;0.20;;;15.50;91.70;;;;;;5044413;28;20057;-63
2021/05/18 11:33:41;;;;;;;1.08;0.10;;;15.80;93.00;;;;;;5026863;28;20135;-62
2021/05/18 11:36:20;;;;;;;3.20;0.00;;;16.00;88.10;;;;;;5042364;28;20508;-62
2021/05/18 11:38:56;;;;;;;1.65;0.08;;;16.30;83.30;;;;;;5026765;28;20084;-62
2021/05/18 11:41:31;;;;;;;0.70;0.22;;;16.60;80.60;;;;;;5042195;28;20055;-62
2021/05/18 11:43:59;;;;;;;0.50;0.00;;;16.80;76.10;;;;;;5030887;28;20415;-62
2021/05/18 11:46:30;;;;;;;0.15;0.10;;;17.00;80.40;;;;;;5024343;28;20103;-62
2021/05/18 11:49:00;;;;;;;0.55;0.10;;;17.10;79.20;;;;;;5025097;28;20567;-62
2021/05/18 11:51:29;;;;;;;0.45;0.10;;;17.10;77.60;;;;;;5036562;28;20404;-63
2021/05/18 11:54:14;;;;;;;2.28;0.10;;;17.10;77.20;;;;;;5042939;28;20057;-62
2021/05/18 11:56:42;;;;;;;1.88;0.20;;;17.20;78.60;;;;;;5045205;28;20048;-63
2021/05/18 11:59:11;;;;;;;1.05;0.10;;;17.30;79.50;;;;;;5044513;28;20056;-63
2021/05/18 12:01:51;;;;;;;1.98;0.73;;;17.50;78.70;;;;;;5038896;28;20483;-63
2021/05/18 12:04:20;;;;;;;1.05;0.20;;;17.70;77.30;;;;;;5023463;28;20399;-63
2021/05/18 12:06:59;;;;;;;1.27;0.13;;;17.80;76.30;;;;;;5041612;28;20068;-62
2021/05/18 12:09:28;;;;;;;2.00;0.38;;;17.80;79.10;;;;;;5041252;28;20033;-62
2021/05/18 12:11:57;;;;;;;0.95;0.17;;;17.70;77.80;;;;;;5025831;28;20057;-63
2021/05/18 12:14:24;;;;;;;0.43;0.10;;;17.70;79.30;;;;;;5046178;28;20088;-62
2021/05/18 12:16:52;;;;;;;2.28;0.30;;;17.50;79.60;;;;;;5041860;28;20059;-62
2021/05/18 12:19:20;;;;;;;1.48;0.75;;;17.40;78.70;;;;;;5048482;28;20637;-62
2021/05/18 12:21:51;;;;;;;0.68;0.20;;;17.20;80.00;;;;;;5031982;28;20144;-62
2021/05/18 12:24:24;;;;;;;4.03;0.20;;;17.20;80.20;;;;;;5047227;28;20056;-62
2021/05/18 12:26:57;;;;;;;0.50;0.15;;;17.20;80.70;;;;;;5048320;28;20045;-63
2021/05/18 12:29:35;;;;;;;1.02;0.30;;;17.30;82.50;;;;;;5031319;28;20518;-63
2021/05/18 12:32:23;;;;;;;0.88;0.20;;;17.30;80.90;;;;;;5020798;28;20106;-63
2021/05/18 12:35:20;;;;;;;1.00;0.30;;;17.20;82.40;;;;;;5041028;28;20053;-62
2021/05/18 12:37:50;;;;;;;0.57;0.10;;;17.30;83.70;;;;;;5049821;28;20068;-63
2021/05/18 12:40:26;;;;;;;0.55;0.20;;;17.30;82.20;;;;;;5015150;28;20575;-63
2021/05/18 12:43:06;;;;;;;0.68;0.17;;;17.30;85.10;;;;;;5028469;28;20053;-62
2021/05/18 12:45:33;;;;;;;0.80;0.25;;;17.40;81.60;;;;;;5048032;28;20048;-63
2021/05/18 12:48:00;;;;;;;1.27;0.50;;;17.60;83.40;;;;;;5047493;28;20111;-63
2021/05/18 12:50:43;;;;;;;1.42;0.30;;;18.00;84.20;;;;;;5046055;28;20503;-62
2021/05/18 12:53:23;;;;;;;0.22;0.10;;;18.50;78.30;;;;;;5038331;28;20064;-62
2021/05/18 12:55:51;;;;;;;0.50;0.20;;;18.80;76.20;;;;;;5023327;28;20057;-62
2021/05/18 12:58:30;;;;;;;0.68;0.13;;;19.10;76.30;;;;;;5026815;28;20547;-62
2021/05/18 13:01:17;;;;;;;0.88;0.30;;;19.20;77.00;;;;;;5046432;28;20076;-62
2021/05/18 13:03:45;;;;;;;0.73;0.30;;;19.50;75.00;;;;;;5045115;28;20059;-62
2021/05/18 13:06:13;;;;;;;0.82;0.20;;;19.50;76.30;;;;;;5049918;28;20041;-63
2021/05/18 13:08:41;;;;;;;3.00;0.17;;;19.30;72.30;;;;;;5029385;28;20049;-62
2021/05/18 13:14:04;;;;;;;1.13;0.10;;;18.80;73.80;;;;;;4965848;28;20495;-61
2021/05/18 13:16:38;;;;;;;1.02;0.20;;;18.70;73.90;;;;;;4966911;28;20094;-62
2021/05/18 13:19:09;;;;;;;1.65;0.13;;;18.50;75.00;;;;;;4966287;28;20490;-61
2021/05/18 13:21:48;;;;;;;1.00;0.45;;;18.40;77.10;;;;;;4932809;28;20086;-62
2021/05/18 13:26:54;;;;;;;1.75;0.30;;;18.30;78.20;;;;;;4967641;28;20060;-61
2021/05/18 13:29:23;;;;;;;1.58;0.20;;;18.30;76.30;;;;;;4977599;28;20150;-61
2021/05/18 13:31:53;;;;;;;1.20;0.10;;;18.30;75.50;;;;;;4966618;28;20090;-61
2021/05/18 13:34:40;;;;;;;2.17;0.10;;;18.20;72.20;;;;;;4957443;28;20084;-62
2021/05/18 13:37:07;;;;;;;1.77;0.17;;;18.10;73.00;;;;;;4965235;28;20133;-62
2021/05/18 13:39:34;;;;;;;0.32;0.10;;;18.40;73.40;;;;;;4962375;28;20051;-62
2021/05/18 13:42:02;;;;;;;0.77;0.20;;;18.80;72.80;;;;;;4964256;28;20498;-62
2021/05/18 13:44:30;;;;;;;0.40;0.20;;;19.20;71.60;;;;;;4946707;28;20066;-62
2021/05/18 13:46:57;;;;;;;0.77;0.10;;;19.50;69.80;;;;;;4960629;28;20608;-62
2021/05/18 13:49:25;;;;;;;0.85;0.10;;;19.80;70.20;;;;;;4965634;28;20077;-62
2021/05/18 13:51:52;;;;;;;2.78;0.30;;;20.00;69.90;;;;;;5029966;28;20048;-62
2021/05/18 13:54:31;;;;;;;2.58;0.20;;;20.20;68.00;;;;;;5047584;28;20099;-62
2021/05/18 13:56:59;;;;;;;1.27;0.13;;;20.40;67.90;;;;;;5046515;28;20052;-62
2021/05/18 13:59:28;;;;;;;0.75;0.17;;;20.30;68.30;;;;;;5026622;28;20057;-62
2021/05/18 14:01:56;;;;;;;2.15;0.10;;;20.30;66.80;;;;;;5010829;28;20142;-62
2021/05/18 14:04:24;;;;;;;1.58;0.10;;;20.40;66.00;;;;;;5028894;28;20114;-62
2021/05/18 14:07:01;;;;;;;1.15;0.10;;;20.30;63.60;;;;;;5046081;28;20056;-62
2021/05/18 14:09:34;;;;;;;0.47;0.03;;;20.40;64.10;;;;;;5045491;28;20045;-62
2021/05/18 14:12:01;;;;;;;2.08;0.20;;;20.40;66.60;;;;;;5028351;28;20064;-62
2021/05/18 14:14:28;;;;;;;1.05;0.10;;;20.70;69.30;;;;;;5023105;28;20045;-62
2021/05/18 14:16:55;;;;;;;2.80;0.63;;;20.60;70.50;;;;;;5043928;28;20045;-62
2021/05/18 14:19:23;;;;;;;0.28;0.10;;;20.40;71.70;;;;;;5047224;28;20562;-63
2021/05/18 14:21:52;;;;;;;2.45;0.20;;;20.30;65.50;;;;;;5046378;28;20067;-63
2021/05/18 14:24:23;;;;;;;2.17;0.30;;;20.50;71.50;;;;;;5012379;28;20108;-62
2021/05/18 14:26:50;;;;;;;1.08;0.10;;;20.50;72.90;;;;;;4996561;28;20645;-63
2021/05/18 14:29:17;;;;;;;1.77;0.10;;;20.50;74.70;;;;;;5023182;28;20481;-62
2021/05/18 14:31:44;;;;;;;1.48;0.20;;;20.50;65.00;;;;;;4998843;28;20536;-64
2021/05/18 14:34:11;;;;;;;2.25;0.30;;;20.60;68.40;;;;;;5026005;28;20055;-63
2021/05/18 14:36:38;;;;;;;0.65;0.20;;;20.50;70.10;;;;;;5003096;28;20152;-62
2021/05/18 14:39:22;;;;;;;0.75;0.10;;;20.20;68.30;;;;;;5024059;28;20064;-62
2021/05/18 14:44:35;;;;;;;1.83;0.10;;;19.60;70.10;;;;;;5025092;28;20061;-62
2021/05/18 14:47:09;;;;;;;1.17;0.10;;;19.50;70.80;;;;;;5009368;28;20559;-62
2021/05/18 14:55:11;;;;;;;1.08;0.13;;;19.80;73.80;;;;;;5033870;28;20045;-62
2021/05/18 14:57:38;;;;;;;0.98;0.20;;;19.90;73.40;;;;;;5006394;28;20154;-65
2021/05/18 15:00:06;;;;;;;2.88;1.05;;;19.80;73.30;;;;;;5008589;28;20046;-63
2021/05/18 15:02:33;;;;;;;1.60;0.50;;;19.70;73.90;;;;;;5018836;28;20058;-67
2021/05/18 15:05:00;;;;;;;0.57;0.10;;;19.80;76.40;;;;;;5004928;28;20053;-68
2021/05/18 15:07:27;;;;;;;5.78;0.20;;;19.80;74.00;;;;;;5008243;28;20037;-68
2021/05/18 15:09:56;;;;;;;0.98;0.20;;;19.80;74.90;;;;;;5008939;28;20775;-68
2021/05/18 15:12:29;;;;;;;1.95;0.20;;;19.80;75.40;;;;;;5025593;28;20041;-68
2021/05/18 15:14:56;;;;;;;0.85;0.22;;;20.00;73.40;;;;;;5031700;28;20090;-70
2021/05/18 15:17:24;;;;;;;0.60;0.20;;;20.10;71.50;;;;;;4994220;28;20046;-62
2021/05/18 15:19:53;;;;;;;1.40;0.20;;;20.00;70.60;;;;;;5023930;28;20477;-63
2021/05/18 15:22:21;;;;;;;1.45;0.20;;;19.90;70.80;;;;;;5021496;28;20525;-63
2021/05/18 15:24:48;;;;;;;0.55;0.10;;;19.70;70.20;;;;;;4997803;28;20108;-63
2021/05/18 15:27:15;;;;;;;1.50;0.20;;;19.50;71.60;;;;;;5009673;28;20049;-63
2021/05/18 15:29:42;;;;;;;3.17;0.30;;;19.30;72.40;;;;;;5008139;28;20065;-62
2021/05/18 15:32:10;;;;;;;0.95;0.10;;;19.30;73.80;;;;;;5024098;28;20111;-62
2021/05/18 15:34:37;;;;;;;1.20;0.35;;;19.40;73.40;;;;;;5025882;28;20049;-62
2021/05/18 15:37:05;;;;;;;2.38;0.10;;;19.60;73.40;;;;;;5025582;28;20108;-62
2021/05/18 15:39:32;;;;;;;2.20;0.30;;;19.80;73.30;;;;;;5008237;28;20041;-62
2021/05/18 15:41:59;;;;;;;1.52;0.20;;;19.90;72.60;;;;;;5025506;28;20045;-62
2021/05/18 15:44:26;;;;;;;1.67;0.20;;;19.90;75.90;;;;;;5007753;28;20057;-62
2021/05/18 15:46:53;;;;;;;1.85;0.28;;;19.90;73.80;;;;;;5007000;28;20045;-62
2021/05/18 15:49:21;;;;;;;0.75;0.20;;;19.80;73.90;;;;;;5026013;28;20674;-62
2021/05/18 15:51:47;;;;;;;3.70;0.65;;;19.70;74.60;;;;;;5005166;28;20057;-62
2021/05/18 15:54:15;;;;;;;1.55;0.35;;;19.40;75.10;;;;;;5023478;28;20077;-63
2021/05/18 15:56:42;;;;;;;2.38;0.57;;;19.30;75.80;;;;;;5023345;28;20104;-63
2021/05/18 15:59:16;;;;;;;0.50;0.20;;;19.20;76.50;;;;;;5023846;28;20045;-62
2021/05/18 16:01:50;;;;;;;0.40;0.17;;;19.10;76.10;;;;;;5009375;28;20049;-63
2021/05/18 16:04:22;;;;;;;2.75;0.60;;;19.10;75.20;;;;;;5012531;28;20524;-63
2021/05/18 16:06:50;;;;;;;0.50;0.20;;;19.00;75.60;;;;;;5013589;28;20045;-63
2021/05/18 16:09:17;;;;;;;1.75;0.20;;;19.10;75.30;;;;;;5026013;28;20508;-63
2021/05/18 16:11:44;;;;;;;0.82;0.20;;;19.00;71.90;;;;;;5025803;28;20728;-63
2021/05/18 16:14:11;;;;;;;2.95;0.38;;;18.90;71.90;;;;;;5005517;28;20050;-64
2021/05/18 16:16:38;;;;;;;1.77;0.20;;;18.90;72.00;;;;;;5019703;28;20062;-63
2021/05/18 16:19:06;;;;;;;0.85;0.20;;;18.90;71.80;;;;;;5025177;28;20049;-63
2021/05/18 16:21:33;;;;;;;0.60;0.10;;;18.90;70.70;;;;;;5004760;28;20054;-63
2021/05/18 16:24:01;;;;;;;0.20;0.10;;;19.00;71.10;;;;;;5011334;28;20049;-63
2021/05/18 16:26:30;;;;;;;1.58;0.10;;;19.10;72.00;;;;;;5006733;28;20041;-65
2021/05/18 16:28:58;;;;;;;1.75;0.20;;;19.10;69.40;;;;;;5024070;28;20055;-66
2021/05/18 16:31:27;;;;;;;0.60;0.10;;;19.20;70.20;;;;;;5008333;28;20046;-67
2021/05/18 16:33:56;;;;;;;0.32;0.10;;;19.20;69.10;;;;;;5028268;28;20378;-67
2021/05/18 16:36:24;;;;;;;1.60;0.30;;;19.20;68.20;;;;;;5031449;28;20044;-67
2021/05/18 16:38:52;;;;;;;0.20;0.10;;;19.20;69.60;;;;;;5011944;28;20057;-68
2021/05/18 16:41:42;;;;;;;0.60;0.10;;;19.30;69.50;;;;;;5031143;28;20053;-67
2021/05/18 16:44:10;;;;;;;0.82;0.20;;;19.30;68.50;;;;;;5032851;28;20046;-68
2021/05/18 16:46:38;;;;;;;1.95;0.30;;;19.30;71.30;;;;;;5009105;28;20042;-69
2021/05/18 16:49:06;;;;;;;0.60;0.17;;;19.20;69.30;;;;;;5007166;28;20046;-62
2021/05/18 16:51:38;;;;;;;0.93;0.10;;;19.30;69.80;;;;;;5035191;28;20046;-69
2021/05/18 16:54:11;;;;;;;1.60;0.75;;;19.20;70.30;;;;;;5008090;28;20046;-68
2021/05/18 16:56:39;;;;;;;1.23;0.20;;;19.10;70.70;;;;;;5010938;28;20045;-66
2021/05/18 16:59:07;;;;;;;7.30;1.25;;;19.10;71.00;;;;;;5002882;28;20061;-66
2021/05/18 17:01:35;;;;;;;0.47;0.20;;;19.10;72.20;;;;;;5008586;28;20053;-66
2021/05/18 17:04:16;;;;;;;0.30;0.10;;;19.00;71.50;;;;;;5003725;28;20045;-64
2021/05/18 17:06:43;;;;;;;0.75;0.10;;;18.90;71.70;;;;;;5023314;28;20519;-65
2021/05/18 17:09:11;;;;;;;0.88;0.17;;;18.70;71.70;;;;;;5025833;28;20037;-67
2021/05/18 17:11:40;;;;;;;1.35;0.40;;;18.70;72.10;;;;;;5011174;28;20065;-68
2021/05/18 17:14:09;;;;;;;2.67;0.10;;;18.50;71.40;;;;;;4999484;28;20085;-68
2021/05/18 17:16:43;;;;;;;1.25;0.20;;;18.50;71.10;;;;;;5011060;28;20072;-68
2021/05/18 17:19:10;;;;;;;1.27;0.10;;;18.40;73.30;;;;;;5018673;28;20049;-66
2021/05/18 17:21:38;;;;;;;1.75;0.20;;;18.40;73.10;;;;;;5029240;28;20049;-66
2021/05/18 17:24:07;;;;;;;0.52;0.20;;;18.30;72.60;;;;;;5016277;28;20423;-67
2021/05/18 17:26:35;;;;;;;1.92;0.22;;;18.20;74.30;;;;;;5031174;28;20074;-67
2021/05/18 17:29:04;;;;;;;0.82;0.32;;;18.20;74.20;;;;;;5032175;28;20041;-66
2021/05/18 17:31:33;;;;;;;2.28;0.22;;;18.20;73.90;;;;;;5014182;28;20507;-68
2021/05/18 17:34:00;;;;;;;0.95;0.10;;;18.10;73.90;;;;;;5030347;28;20497;-63
2021/05/18 17:36:28;;;;;;;0.82;0.30;;;18.10;74.10;;;;;;5028258;28;20825;-63
2021/05/18 17:38:55;;;;;;;2.00;0.20;;;18.00;74.80;;;;;;5030247;28;20111;-63
2021/05/18 17:41:24;;;;;;;1.80;0.30;;;17.90;74.10;;;;;;5012392;28;20050;-62
2021/05/18 17:43:55;;;;;;;1.63;0.50;;;17.90;74.90;;;;;;5031243;28;20049;-62
2021/05/18 17:46:25;;;;;;;1.70;0.70;;;17.80;75.90;;;;;;5027430;28;20050;-62
2021/05/18 17:48:52;;;;;;;1.02;0.40;;;17.80;76.20;;;;;;5024515;28;20598;-63
2021/05/18 17:51:20;;;;;;;2.28;0.77;;;17.70;77.70;;;;;;5010658;28;20557;-62
2021/05/18 17:53:49;;;;;;;1.98;0.35;;;17.70;76.30;;;;;;5030537;28;20234;-69
2021/05/18 17:56:16;;;;;;;1.60;0.55;;;17.60;76.90;;;;;;5005507;28;20056;-64
2021/05/18 17:58:43;;;;;;;2.10;1.02;;;17.50;77.10;;;;;;5011796;28;20064;-64
2021/05/18 18:01:11;;;;;;;1.92;0.90;;;17.50;77.50;;;;;;5030134;28;20049;-64
2021/05/18 18:03:38;;;;;;;1.98;0.70;;;17.40;80.10;;;;;;5030884;28;20056;-67
2021/05/18 18:06:06;;;;;;;2.15;0.70;;;17.40;79.70;;;;;;4996260;28;20046;-67
2021/05/18 18:08:39;;;;;;;1.35;0.50;;;17.40;81.30;;;;;;5008401;28;20420;-69
2021/05/18 18:11:11;;;;;;;1.13;0.68;;;17.30;82.00;;;;;;4995823;28;20041;-70
2021/05/18 18:13:38;;;;;;;1.10;0.50;;;17.20;82.50;;;;;;5010605;28;20050;-70
2021/05/18 18:16:08;;;;;;;3.17;0.55;;;17.10;82.60;;;;;;5014524;28;20055;-70
2021/05/18 18:18:36;;;;;;;4.80;0.50;;;17.00;83.80;;;;;;5009207;28;20045;-70
2021/05/18 18:21:06;;;;;;;1.88;0.38;;;17.00;84.40;;;;;;5012152;28;20909;-70